sensor_id;sensor_type;location;lat;lon;timestamp;pressure;altitude;pressure_sealevel;temperature;humidity
46448;BME280;32145;50.390;30.778;2023-09-18T00:00:23;100858.88;;;12.17;72.77
46448;BME280;32145;50.390;30.778;2023-09-18T00:03:21;100854.72;;;12.14;73.00
46448;BME280;32145;50.390;30.778;2023-09-18T00:06:18;100860.56;;;12.11;72.87
46448;BME280;32145;50.390;30.778;2023-09-18T00:09:14;100855.56;;;12.08;73.15
46448;BME280;32145;50.390;30.778;2023-09-18T00:12:10;100855.78;;;12.06;73.09
46448;BME280;32145;50.390;30.778;2023-09-18T00:15:09;100856.22;;;12.03;72.78
46448;BME280;32145;50.390;30.778;2023-09-18T00:18:05;100853.72;;;12.02;73.01
46448;BME280;32145;50.390;30.778;2023-09-18T00:21:01;100857.50;;;12.01;73.08
46448;BME280;32145;50.390;30.778;2023-09-18T00:23:58;100852.06;;;12.01;72.96
46448;BME280;32145;50.390;30.778;2023-09-18T00:26:54;100859.59;;;11.98;72.86
46448;BME280;32145;50.390;30.778;2023-09-18T00:29:50;100860.03;;;11.95;72.92
46448;BME280;32145;50.390;30.778;2023-09-18T00:32:48;100856.50;;;11.95;72.88
46448;BME280;32145;50.390;30.778;2023-09-18T00:35:48;100855.66;;;11.94;72.93
46448;BME280;32145;50.390;30.778;2023-09-18T00:38:45;100855.25;;;11.91;73.29
46448;BME280;32145;50.390;30.778;2023-09-18T00:41:41;100862.78;;;11.89;73.08
46448;BME280;32145;50.390;30.778;2023-09-18T00:44:37;100855.69;;;11.88;73.09
46448;BME280;32145;50.390;30.778;2023-09-18T00:47:34;100857.56;;;11.87;73.27
46448;BME280;32145;50.390;30.778;2023-09-18T00:50:32;100860.72;;;11.84;72.93
46448;BME280;32145;50.390;30.778;2023-09-18T00:53:26;100860.31;;;11.80;73.13
46448;BME280;32145;50.390;30.778;2023-09-18T00:56:21;100861.59;;;11.78;72.69
46448;BME280;32145;50.390;30.778;2023-09-18T00:59:15;100862.19;;;11.80;73.04
46448;BME280;32145;50.390;30.778;2023-09-18T01:02:09;100862.66;;;11.77;73.33
46448;BME280;32145;50.390;30.778;2023-09-18T01:05:04;100856.59;;;11.75;73.41
46448;BME280;32145;50.390;30.778;2023-09-18T01:08:00;100857.44;;;11.75;72.86
46448;BME280;32145;50.390;30.778;2023-09-18T01:11:02;100857.44;;;11.75;73.38
46448;BME280;32145;50.390;30.778;2023-09-18T01:14:05;100859.09;;;11.76;73.14
46448;BME280;32145;50.390;30.778;2023-09-18T01:17:04;100857.22;;;11.77;72.95
46448;BME280;32145;50.390;30.778;2023-09-18T01:20:02;100857.81;;;11.79;72.74
46448;BME280;32145;50.390;30.778;2023-09-18T01:22:59;100857.59;;;11.80;72.90
46448;BME280;32145;50.390;30.778;2023-09-18T01:25:56;100863.88;;;11.81;73.07
46448;BME280;32145;50.390;30.778;2023-09-18T01:28:54;100860.91;;;11.82;73.25
46448;BME280;32145;50.390;30.778;2023-09-18T01:31:50;100858.63;;;11.86;73.11
46448;BME280;32145;50.390;30.778;2023-09-18T01:34:46;100852.97;;;11.88;72.67
46448;BME280;32145;50.390;30.778;2023-09-18T01:37:41;100853.34;;;11.91;73.00
46448;BME280;32145;50.390;30.778;2023-09-18T01:40:37;100848.56;;;11.93;73.42
46448;BME280;32145;50.390;30.778;2023-09-18T01:43:32;100850.22;;;11.94;73.19
46448;BME280;32145;50.390;30.778;2023-09-18T01:46:27;100851.06;;;11.95;72.98
46448;BME280;32145;50.390;30.778;2023-09-18T01:49:26;100846.00;;;11.98;73.17
46448;BME280;32145;50.390;30.778;2023-09-18T01:52:21;100845.38;;;11.96;73.28
46448;BME280;32145;50.390;30.778;2023-09-18T01:55:15;100847.28;;;11.96;72.72
46448;BME280;32145;50.390;30.778;2023-09-18T01:58:11;100844.34;;;11.97;73.23
46448;BME280;32145;50.390;30.778;2023-09-18T02:01:05;100841.84;;;11.96;72.82
46448;BME280;32145;50.390;30.778;2023-09-18T02:04:00;100837.22;;;11.96;73.03
46448;BME280;32145;50.390;30.778;2023-09-18T02:06:54;100838.91;;;11.97;73.41
46448;BME280;32145;50.390;30.778;2023-09-18T02:09:48;100845.16;;;11.98;73.45
46448;BME280;32145;50.390;30.778;2023-09-18T02:12:43;100844.34;;;11.97;73.56
46448;BME280;32145;50.390;30.778;2023-09-18T02:15:38;100838.28;;;11.95;73.22
46448;BME280;32145;50.390;30.778;2023-09-18T02:18:33;100837.69;;;11.93;73.10
46448;BME280;32145;50.390;30.778;2023-09-18T02:21:27;100834.56;;;11.90;73.50
46448;BME280;32145;50.390;30.778;2023-09-18T02:24:21;100829.34;;;11.88;73.38
46448;BME280;32145;50.390;30.778;2023-09-18T02:27:15;100834.75;;;11.88;73.48
46448;BME280;32145;50.390;30.778;2023-09-18T02:30:11;100840.19;;;11.88;73.74
46448;BME280;32145;50.390;30.778;2023-09-18T02:33:06;100834.97;;;11.86;73.57
46448;BME280;32145;50.390;30.778;2023-09-18T02:36:01;100826.44;;;11.83;73.49
46448;BME280;32145;50.390;30.778;2023-09-18T02:38:55;100831.28;;;11.81;73.60
46448;BME280;32145;50.390;30.778;2023-09-18T02:41:49;100832.09;;;11.81;73.69
46448;BME280;32145;50.390;30.778;2023-09-18T02:44:43;100827.50;;;11.82;73.15
46448;BME280;32145;50.390;30.778;2023-09-18T02:47:38;100825.84;;;11.81;73.45
46448;BME280;32145;50.390;30.778;2023-09-18T02:50:33;100825.84;;;11.81;73.85
46448;BME280;32145;50.390;30.778;2023-09-18T02:53:28;100826.44;;;11.83;74.05
46448;BME280;32145;50.390;30.778;2023-09-18T02:56:24;100821.84;;;11.83;73.42
46448;BME280;32145;50.390;30.778;2023-09-18T02:59:21;100817.91;;;11.79;73.67
46448;BME280;32145;50.390;30.778;2023-09-18T03:02:17;100822.72;;;11.77;73.48
46448;BME280;32145;50.390;30.778;2023-09-18T03:05:14;100824.63;;;11.77;74.04
46448;BME280;32145;50.390;30.778;2023-09-18T03:08:12;100823.72;;;11.83;73.83
46448;BME280;32145;50.390;30.778;2023-09-18T03:11:12;100823.91;;;11.88;74.00
46448;BME280;32145;50.390;30.778;2023-09-18T03:14:08;100818.47;;;11.88;74.05
46448;BME280;32145;50.390;30.778;2023-09-18T03:17:04;100822.41;;;11.92;74.17
46448;BME280;32145;50.390;30.778;2023-09-18T03:20:01;100817.16;;;11.97;73.91
46448;BME280;32145;50.390;30.778;2023-09-18T03:22:58;100818.41;;;12.02;73.93
46448;BME280;32145;50.390;30.778;2023-09-18T03:25:56;100817.97;;;12.05;74.22
46448;BME280;32145;50.390;30.778;2023-09-18T03:28:53;100819.66;;;12.06;74.30
46448;BME280;32145;50.390;30.778;2023-09-18T03:31:49;100827.97;;;12.11;73.89
46448;BME280;32145;50.390;30.778;2023-09-18T03:34:45;100818.75;;;12.12;74.21
46448;BME280;32145;50.390;30.778;2023-09-18T03:37:42;100824.81;;;12.14;74.06
46448;BME280;32145;50.390;30.778;2023-09-18T03:40:36;100817.50;;;12.15;74.20
46448;BME280;32145;50.390;30.778;2023-09-18T03:43:32;100824.59;;;12.16;74.01
46448;BME280;32145;50.390;30.778;2023-09-18T03:46:26;100818.31;;;12.15;74.11
46448;BME280;32145;50.390;30.778;2023-09-18T03:49:20;100817.88;;;12.18;74.07
46448;BME280;32145;50.390;30.778;2023-09-18T03:52:17;100819.09;;;12.22;74.43
46448;BME280;32145;50.390;30.778;2023-09-18T03:55:13;100823.66;;;12.29;74.18
46448;BME280;32145;50.390;30.778;2023-09-18T03:58:07;100820.03;;;12.35;74.37
46448;BME280;32145;50.390;30.778;2023-09-18T04:01:03;100821.88;;;12.41;74.12
46448;BME280;32145;50.390;30.778;2023-09-18T04:03:57;100828.09;;;12.48;73.94
46448;BME280;32145;50.390;30.778;2023-09-18T04:06:53;100828.41;;;12.59;73.99
46448;BME280;32145;50.390;30.778;2023-09-18T04:09:48;100832.56;;;12.61;74.06
46448;BME280;32145;50.390;30.778;2023-09-18T04:12:42;100828.34;;;12.66;73.64
46448;BME280;32145;50.390;30.778;2023-09-18T04:15:37;100833.75;;;12.72;73.54
46448;BME280;32145;50.390;30.778;2023-09-18T04:18:32;100837.19;;;12.80;73.50
46448;BME280;32145;50.390;30.778;2023-09-18T04:21:27;100836.94;;;12.88;73.62
46448;BME280;32145;50.390;30.778;2023-09-18T04:24:21;100832.75;;;13.04;73.59
46448;BME280;32145;50.390;30.778;2023-09-18T04:27:16;100840.78;;;13.18;73.62
46448;BME280;32145;50.390;30.778;2023-09-18T04:30:10;100839.56;;;13.32;73.45
46448;BME280;32145;50.390;30.778;2023-09-18T04:33:06;100838.50;;;13.52;73.20
46448;BME280;32145;50.390;30.778;2023-09-18T04:36:05;100841.78;;;13.73;73.33
46448;BME280;32145;50.390;30.778;2023-09-18T04:38:59;100838.06;;;13.86;73.10
46448;BME280;32145;50.390;30.778;2023-09-18T04:41:53;100832.41;;;13.99;72.64
46448;BME280;32145;50.390;30.778;2023-09-18T04:44:48;100837.03;;;14.11;72.19
46448;BME280;32145;50.390;30.778;2023-09-18T04:47:42;100830.22;;;14.20;71.79
46448;BME280;32145;50.390;30.778;2023-09-18T04:50:36;100835.78;;;14.25;71.39
46448;BME280;32145;50.390;30.778;2023-09-18T04:53:32;100834.00;;;14.31;71.15
46448;BME280;32145;50.390;30.778;2023-09-18T04:56:28;100831.53;;;14.41;70.79
46448;BME280;32145;50.390;30.778;2023-09-18T04:59:24;100827.25;;;14.57;70.67
46448;BME280;32145;50.390;30.778;2023-09-18T05:02:21;100823.47;;;14.71;70.37
46448;BME280;32145;50.390;30.778;2023-09-18T05:05:17;100833.59;;;14.82;70.17
46448;BME280;32145;50.390;30.778;2023-09-18T05:08:13;100831.06;;;14.92;69.17
46448;BME280;32145;50.390;30.778;2023-09-18T05:11:11;100828.34;;;15.04;69.08
46448;BME280;32145;50.390;30.778;2023-09-18T05:14:07;100839.97;;;15.12;68.97
46448;BME280;32145;50.390;30.778;2023-09-18T05:17:03;100839.81;;;15.18;68.41
46448;BME280;32145;50.390;30.778;2023-09-18T05:20:00;100841.94;;;15.28;68.46
46448;BME280;32145;50.390;30.778;2023-09-18T05:22:57;100841.09;;;15.40;68.22
46448;BME280;32145;50.390;30.778;2023-09-18T05:25:54;100841.28;;;15.50;67.88
46448;BME280;32145;50.390;30.778;2023-09-18T05:28:39;100844.44;;;15.59;67.55
46448;BME280;32145;50.390;30.778;2023-09-18T05:31:23;100845.75;;;15.68;67.63
46448;BME280;32145;50.390;30.778;2023-09-18T05:34:19;100845.69;;;15.80;67.09
46448;BME280;32145;50.390;30.778;2023-09-18T05:37:03;100834.25;;;15.83;67.26
46448;BME280;32145;50.390;30.778;2023-09-18T05:39:57;100839.06;;;15.93;66.88
46448;BME280;32145;50.390;30.778;2023-09-18T05:42:51;100836.22;;;16.00;66.68
46448;BME280;32145;50.390;30.778;2023-09-18T05:45:37;100837.47;;;16.09;66.45
46448;BME280;32145;50.390;30.778;2023-09-18T05:48:21;100832.34;;;16.13;66.49
46448;BME280;32145;50.390;30.778;2023-09-18T05:51:05;100828.34;;;16.21;66.26
46448;BME280;32145;50.390;30.778;2023-09-18T05:53:49;100834.50;;;16.28;65.55
46448;BME280;32145;50.390;30.778;2023-09-18T05:56:43;100828.78;;;16.30;63.68
46448;BME280;32145;50.390;30.778;2023-09-18T05:59:38;100829.69;;;16.35;61.95
46448;BME280;32145;50.390;30.778;2023-09-18T06:02:23;100825.19;;;16.46;61.43
46448;BME280;32145;50.390;30.778;2023-09-18T06:05:20;100829.50;;;16.59;61.22
46448;BME280;32145;50.390;30.778;2023-09-18T06:08:04;100837.03;;;16.69;60.53
46448;BME280;32145;50.390;30.778;2023-09-18T06:10:58;100835.28;;;16.80;59.89
46448;BME280;32145;50.390;30.778;2023-09-18T06:13:42;100824.47;;;16.91;59.42
46448;BME280;32145;50.390;30.778;2023-09-18T06:16:38;100825.69;;;17.00;59.07
46448;BME280;32145;50.390;30.778;2023-09-18T06:19:36;100830.00;;;17.13;58.87
46448;BME280;32145;50.390;30.778;2023-09-18T06:22:30;100827.72;;;17.27;58.92
46448;BME280;32145;50.390;30.778;2023-09-18T06:25:24;100834.97;;;17.38;58.36
46448;BME280;32145;50.390;30.778;2023-09-18T06:28:09;100835.41;;;17.52;57.75
46448;BME280;32145;50.390;30.778;2023-09-18T06:30:53;100831.94;;;17.62;57.17
46448;BME280;32145;50.390;30.778;2023-09-18T06:33:49;100841.69;;;17.75;56.71
46448;BME280;32145;50.390;30.778;2023-09-18T06:36:35;100844.00;;;17.89;55.95
46448;BME280;32145;50.390;30.778;2023-09-18T06:39:19;100836.13;;;17.98;55.40
46448;BME280;32145;50.390;30.778;2023-09-18T06:42:15;100843.31;;;18.04;53.75
46448;BME280;32145;50.390;30.778;2023-09-18T06:44:59;100836.22;;;18.08;53.07
46448;BME280;32145;50.390;30.778;2023-09-18T06:47:43;100840.47;;;18.21;52.99
46448;BME280;32145;50.390;30.778;2023-09-18T06:50:27;100841.94;;;18.29;52.39
46448;BME280;32145;50.390;30.778;2023-09-18T06:53:25;100851.34;;;18.44;52.41
46448;BME280;32145;50.390;30.778;2023-09-18T06:56:09;100843.22;;;18.54;51.60
46448;BME280;32145;50.390;30.778;2023-09-18T06:58:53;100844.94;;;18.65;51.90
46448;BME280;32145;50.390;30.778;2023-09-18T07:01:37;100841.16;;;18.77;51.43
46448;BME280;32145;50.390;30.778;2023-09-18T07:04:21;100833.50;;;18.84;51.10
46448;BME280;32145;50.390;30.778;2023-09-18T07:07:18;100839.06;;;18.94;51.19
46448;BME280;32145;50.390;30.778;2023-09-18T07:10:04;100844.63;;;19.05;51.19
46448;BME280;32145;50.390;30.778;2023-09-18T07:12:58;100841.41;;;19.18;50.81
46448;BME280;32145;50.390;30.778;2023-09-18T07:15:52;100835.41;;;19.32;50.81
46448;BME280;32145;50.390;30.778;2023-09-18T07:18:36;100830.50;;;19.44;51.01
46448;BME280;32145;50.390;30.778;2023-09-18T07:21:31;100833.84;;;19.57;49.87
46448;BME280;32145;50.390;30.778;2023-09-18T07:24:25;100833.31;;;19.65;49.54
46448;BME280;32145;50.390;30.778;2023-09-18T07:27:21;100824.53;;;19.74;48.86
46448;BME280;32145;50.390;30.778;2023-09-18T07:30:05;100832.25;;;19.82;48.90
46448;BME280;32145;50.390;30.778;2023-09-18T07:33:00;100832.53;;;19.91;48.71
46448;BME280;32145;50.390;30.778;2023-09-18T07:35:45;100829.56;;;20.08;48.75
46448;BME280;32145;50.390;30.778;2023-09-18T07:38:31;100825.69;;;20.30;48.59
46448;BME280;32145;50.390;30.778;2023-09-18T07:41:27;100831.19;;;20.45;47.95
46448;BME280;32145;50.390;30.778;2023-09-18T07:44:12;100821.25;;;20.60;47.94
46448;BME280;32145;50.390;30.778;2023-09-18T07:46:56;100821.22;;;20.76;47.49
46448;BME280;32145;50.390;30.778;2023-09-18T07:49:46;100817.91;;;20.89;47.39
46448;BME280;32145;50.390;30.778;2023-09-18T07:52:41;100820.09;;;20.92;46.80
46448;BME280;32145;50.390;30.778;2023-09-18T07:55:25;100819.50;;;21.06;46.97
46448;BME280;32145;50.390;30.778;2023-09-18T07:58:21;100817.28;;;21.03;44.56
46448;BME280;32145;50.390;30.778;2023-09-18T08:01:07;100823.66;;;20.88;44.07
46448;BME280;32145;50.390;30.778;2023-09-18T08:04:01;100829.72;;;20.84;44.66
46448;BME280;32145;50.390;30.778;2023-09-18T08:06:45;100822.56;;;20.83;44.64
46448;BME280;32145;50.390;30.778;2023-09-18T08:09:36;100821.22;;;20.91;45.05
46448;BME280;32145;50.390;30.778;2023-09-18T08:12:30;100822.56;;;20.94;44.29
46448;BME280;32145;50.390;30.778;2023-09-18T08:15:14;100812.91;;;20.96;43.26
46448;BME280;32145;50.390;30.778;2023-09-18T08:18:10;100811.22;;;21.11;43.10
46448;BME280;32145;50.390;30.778;2023-09-18T08:20:54;100808.16;;;21.18;43.38
46448;BME280;32145;50.390;30.778;2023-09-18T08:23:50;100805.91;;;21.25;43.57
46448;BME280;32145;50.390;30.778;2023-09-18T08:26:34;100804.72;;;21.36;43.80
46448;BME280;32145;50.390;30.778;2023-09-18T08:29:18;100805.81;;;21.46;42.80
46448;BME280;32145;50.390;30.778;2023-09-18T08:32:14;100804.94;;;21.50;42.08
46448;BME280;32145;50.390;30.778;2023-09-18T08:35:00;100806.81;;;21.60;42.42
46448;BME280;32145;50.390;30.778;2023-09-18T08:37:54;100799.31;;;21.66;42.54
46448;BME280;32145;50.390;30.778;2023-09-18T08:40:49;100801.50;;;21.74;41.28
46448;BME280;32145;50.390;30.778;2023-09-18T08:43:44;100802.59;;;21.79;39.99
46448;BME280;32145;50.390;30.778;2023-09-18T08:46:28;100805.31;;;21.84;39.94
46448;BME280;32145;50.390;30.778;2023-09-18T08:49:23;100797.81;;;21.89;40.93
46448;BME280;32145;50.390;30.778;2023-09-18T08:52:19;100800.81;;;21.93;40.76
46448;BME280;32145;50.390;30.778;2023-09-18T08:55:04;100801.88;;;21.97;40.64
46448;BME280;32145;50.390;30.778;2023-09-18T08:57:49;100791.41;;;21.99;39.89
46448;BME280;32145;50.390;30.778;2023-09-18T09:00:43;100791.56;;;22.13;40.78
46448;BME280;32145;50.390;30.778;2023-09-18T09:03:27;100788.38;;;22.25;40.67
46448;BME280;32145;50.390;30.778;2023-09-18T09:06:22;100779.81;;;22.27;38.98
46448;BME280;32145;50.390;30.778;2023-09-18T09:09:07;100786.97;;;22.28;38.70
46448;BME280;32145;50.390;30.778;2023-09-18T09:11:52;100789.44;;;22.35;39.42
46448;BME280;32145;50.390;30.778;2023-09-18T09:15:01;100785.75;;;22.45;38.71
46448;BME280;32145;50.390;30.778;2023-09-18T09:17:46;100789.28;;;22.50;38.86
46448;BME280;32145;50.390;30.778;2023-09-18T09:20:30;100794.47;;;22.52;37.64
46448;BME280;32145;50.390;30.778;2023-09-18T09:23:25;100788.38;;;22.60;38.09
46448;BME280;32145;50.390;30.778;2023-09-18T09:26:15;100789.72;;;22.63;37.42
46448;BME280;32145;50.390;30.778;2023-09-18T09:29:14;100787.44;;;22.70;37.78
46448;BME280;32145;50.390;30.778;2023-09-18T09:32:12;100782.81;;;22.85;37.19
46448;BME280;32145;50.390;30.778;2023-09-18T09:34:57;100778.81;;;22.96;38.17
46448;BME280;32145;50.390;30.778;2023-09-18T09:37:41;100782.22;;;23.12;38.23
46448;BME280;32145;50.390;30.778;2023-09-18T09:40:38;100772.97;;;23.22;38.04
46448;BME280;32145;50.390;30.778;2023-09-18T09:43:25;100783.13;;;23.27;37.75
46448;BME280;32145;50.390;30.778;2023-09-18T09:46:15;100776.41;;;23.14;35.59
46448;BME280;32145;50.390;30.778;2023-09-18T09:49:00;100773.75;;;23.03;36.20
46448;BME280;32145;50.390;30.778;2023-09-18T09:51:44;100762.34;;;23.10;36.88
46448;BME280;32145;50.390;30.778;2023-09-18T09:54:39;100761.97;;;23.17;36.92
46448;BME280;32145;50.390;30.778;2023-09-18T09:57:23;100764.06;;;23.25;36.89
46448;BME280;32145;50.390;30.778;2023-09-18T10:00:09;100760.09;;;23.32;37.18
46448;BME280;32145;50.390;30.778;2023-09-18T10:03:06;100749.81;;;23.37;37.27
46448;BME280;32145;50.390;30.778;2023-09-18T10:05:51;100753.19;;;23.53;37.73
46448;BME280;32145;50.390;30.778;2023-09-18T10:08:36;100757.31;;;23.56;37.73
46448;BME280;32145;50.390;30.778;2023-09-18T10:11:38;100758.09;;;23.56;37.34
46448;BME280;32145;50.390;30.778;2023-09-18T10:14:29;100752.81;;;23.60;37.40
46448;BME280;32145;50.390;30.778;2023-09-18T10:17:18;100745.66;;;23.73;37.44
46448;BME280;32145;50.390;30.778;2023-09-18T10:20:15;100743.59;;;23.65;36.61
46448;BME280;32145;50.390;30.778;2023-09-18T10:23:06;100735.06;;;23.61;36.74
46448;BME280;32145;50.390;30.778;2023-09-18T10:25:55;100746.16;;;23.61;37.11
46448;BME280;32145;50.390;30.778;2023-09-18T10:28:52;100745.41;;;23.55;36.88
46448;BME280;32145;50.390;30.778;2023-09-18T10:31:50;100736.41;;;23.64;37.50
46448;BME280;32145;50.390;30.778;2023-09-18T10:34:36;100737.78;;;23.80;37.49
46448;BME280;32145;50.390;30.778;2023-09-18T10:37:30;100723.69;;;23.96;37.33
46448;BME280;32145;50.390;30.778;2023-09-18T10:40:15;100722.91;;;24.10;37.11
46448;BME280;32145;50.390;30.778;2023-09-18T10:43:11;100732.97;;;24.05;36.22
46448;BME280;32145;50.390;30.778;2023-09-18T10:45:56;100724.44;;;24.02;35.99
46448;BME280;32145;50.390;30.778;2023-09-18T10:48:41;100720.38;;;24.13;36.68
46448;BME280;32145;50.390;30.778;2023-09-18T10:51:28;100718.75;;;24.26;36.73
46448;BME280;32145;50.390;30.778;2023-09-18T10:54:15;100729.25;;;24.29;35.56
46448;BME280;32145;50.390;30.778;2023-09-18T10:57:00;100721.41;;;24.31;35.47
46448;BME280;32145;50.390;30.778;2023-09-18T10:59:54;100728.09;;;24.30;35.59
46448;BME280;32145;50.390;30.778;2023-09-18T11:02:38;100730.47;;;24.37;35.75
46448;BME280;32145;50.390;30.778;2023-09-18T11:05:29;100707.47;;;24.37;35.01
46448;BME280;32145;50.390;30.778;2023-09-18T11:08:33;100716.59;;;24.51;35.44
46448;BME280;32145;50.390;30.778;2023-09-18T11:11:19;100707.69;;;24.54;35.95
46448;BME280;32145;50.390;30.778;2023-09-18T11:14:10;100715.28;;;24.63;35.29
46448;BME280;32145;50.390;30.778;2023-09-18T11:16:56;100703.78;;;24.55;35.48
46448;BME280;32145;50.390;30.778;2023-09-18T11:19:50;100699.66;;;24.67;35.73
46448;BME280;32145;50.390;30.778;2023-09-18T11:22:34;100697.19;;;24.79;35.40
46448;BME280;32145;50.390;30.778;2023-09-18T11:25:43;100699.47;;;24.77;34.36
46448;BME280;32145;50.390;30.778;2023-09-18T11:28:37;100695.34;;;24.61;34.73
46448;BME280;32145;50.390;30.778;2023-09-18T11:31:42;100693.94;;;24.49;34.92
46448;BME280;32145;50.390;30.778;2023-09-18T11:34:28;100696.00;;;24.29;35.40
46448;BME280;32145;50.390;30.778;2023-09-18T11:37:19;100690.03;;;24.36;36.01
46448;BME280;32145;50.390;30.778;2023-09-18T11:40:04;100683.47;;;24.46;35.06
46448;BME280;32145;50.390;30.778;2023-09-18T11:43:21;100693.09;;;24.63;35.85
46448;BME280;32145;50.390;30.778;2023-09-18T11:46:18;100690.13;;;24.73;35.26
46448;BME280;32145;50.390;30.778;2023-09-18T11:49:03;100686.13;;;24.65;36.04
46448;BME280;32145;50.390;30.778;2023-09-18T11:51:47;100676.66;;;24.52;36.58
46448;BME280;32145;50.390;30.778;2023-09-18T11:54:43;100676.06;;;24.27;36.34
46448;BME280;32145;50.390;30.778;2023-09-18T11:57:28;100688.56;;;24.11;35.57
46448;BME280;32145;50.390;30.778;2023-09-18T12:00:20;100671.38;;;24.28;36.08
46448;BME280;32145;50.390;30.778;2023-09-18T12:03:13;100666.53;;;24.62;35.29
46448;BME280;32145;50.390;30.778;2023-09-18T12:05:59;100675.63;;;24.76;34.52
46448;BME280;32145;50.390;30.778;2023-09-18T12:08:45;100677.47;;;24.95;34.95
46448;BME280;32145;50.390;30.778;2023-09-18T12:11:41;100674.22;;;25.16;34.13
46448;BME280;32145;50.390;30.778;2023-09-18T12:14:37;100674.91;;;25.21;34.04
46448;BME280;32145;50.390;30.778;2023-09-18T12:17:22;100674.13;;;25.21;34.03
46448;BME280;32145;50.390;30.778;2023-09-18T12:20:18;100678.66;;;25.17;33.61
46448;BME280;32145;50.390;30.778;2023-09-18T12:23:02;100663.00;;;25.21;33.58
46448;BME280;32145;50.390;30.778;2023-09-18T12:25:48;100662.25;;;25.29;33.26
46448;BME280;32145;50.390;30.778;2023-09-18T12:28:35;100665.97;;;25.47;33.46
46448;BME280;32145;50.390;30.778;2023-09-18T12:31:31;100663.47;;;25.60;33.93
46448;BME280;32145;50.390;30.778;2023-09-18T12:34:29;100653.19;;;25.60;33.70
46448;BME280;32145;50.390;30.778;2023-09-18T12:37:25;100651.25;;;25.24;33.42
46448;BME280;32145;50.390;30.778;2023-09-18T12:40:21;100648.75;;;25.14;34.07
46448;BME280;32145;50.390;30.778;2023-09-18T12:43:16;100644.09;;;25.23;34.03
46448;BME280;32145;50.390;30.778;2023-09-18T12:46:01;100641.13;;;25.42;34.38
46448;BME280;32145;50.390;30.778;2023-09-18T12:48:58;100639.31;;;25.60;34.11
46448;BME280;32145;50.390;30.778;2023-09-18T12:52:01;100642.50;;;25.77;34.24
46448;BME280;32145;50.390;30.778;2023-09-18T12:54:45;100645.66;;;25.84;33.75
46448;BME280;32145;50.390;30.778;2023-09-18T12:57:30;100632.53;;;25.76;32.60
46448;BME280;32145;50.390;30.778;2023-09-18T13:00:27;100632.91;;;25.83;33.28
46448;BME280;32145;50.390;30.778;2023-09-18T13:03:12;100630.16;;;25.92;33.39
46448;BME280;32145;50.390;30.778;2023-09-18T13:06:06;100628.88;;;25.98;33.21
46448;BME280;32145;50.390;30.778;2023-09-18T13:09:17;100632.81;;;25.97;33.37
46448;BME280;32145;50.390;30.778;2023-09-18T13:12:14;100632.66;;;26.02;33.24
46448;BME280;32145;50.390;30.778;2023-09-18T13:15:10;100632.16;;;26.00;33.36
46448;BME280;32145;50.390;30.778;2023-09-18T13:17:55;100627.72;;;25.99;32.94
46448;BME280;32145;50.390;30.778;2023-09-18T13:20:50;100624.16;;;25.98;32.95
46448;BME280;32145;50.390;30.778;2023-09-18T13:23:47;100618.72;;;25.93;32.46
46448;BME280;32145;50.390;30.778;2023-09-18T13:26:46;100622.97;;;25.91;33.36
46448;BME280;32145;50.390;30.778;2023-09-18T13:29:30;100619.88;;;25.92;33.29
46448;BME280;32145;50.390;30.778;2023-09-18T13:32:14;100612.22;;;25.98;33.48
46448;BME280;32145;50.390;30.778;2023-09-18T13:35:10;100611.28;;;26.11;33.01
46448;BME280;32145;50.390;30.778;2023-09-18T13:37:55;100604.25;;;26.05;33.13
46448;BME280;32145;50.390;30.778;2023-09-18T13:40:49;100609.28;;;26.03;33.46
46448;BME280;32145;50.390;30.778;2023-09-18T13:43:35;100612.25;;;26.07;33.09
46448;BME280;32145;50.390;30.778;2023-09-18T13:46:31;100608.28;;;25.99;31.87
46448;BME280;32145;50.390;30.778;2023-09-18T13:49:21;100596.50;;;25.84;32.41
46448;BME280;32145;50.390;30.778;2023-09-18T13:52:05;100598.06;;;25.77;32.26
46448;BME280;32145;50.390;30.778;2023-09-18T13:55:03;100597.75;;;25.78;32.50
46448;BME280;32145;50.390;30.778;2023-09-18T13:57:47;100600.69;;;25.73;32.22
46448;BME280;32145;50.390;30.778;2023-09-18T14:00:33;100607.22;;;25.77;33.12
46448;BME280;32145;50.390;30.778;2023-09-18T14:03:29;100598.94;;;25.86;33.25
46448;BME280;32145;50.390;30.778;2023-09-18T14:06:13;100593.56;;;25.90;33.53
46448;BME280;32145;50.390;30.778;2023-09-18T14:08:57;100589.78;;;25.85;33.35
46448;BME280;32145;50.390;30.778;2023-09-18T14:11:41;100589.56;;;25.73;32.72
46448;BME280;32145;50.390;30.778;2023-09-18T14:14:31;100588.22;;;25.61;33.30
46448;BME280;32145;50.390;30.778;2023-09-18T14:17:18;100582.03;;;25.65;33.36
46448;BME280;32145;50.390;30.778;2023-09-18T14:20:14;100583.03;;;25.69;33.67
46448;BME280;32145;50.390;30.778;2023-09-18T14:22:58;100579.28;;;25.73;33.81
46448;BME280;32145;50.390;30.778;2023-09-18T14:25:42;100574.53;;;25.74;33.20
46448;BME280;32145;50.390;30.778;2023-09-18T14:28:38;100579.88;;;25.61;33.31
46448;BME280;32145;50.390;30.778;2023-09-18T14:31:30;100582.13;;;25.59;33.66
46448;BME280;32145;50.390;30.778;2023-09-18T14:34:15;100582.13;;;25.59;33.81
46448;BME280;32145;50.390;30.778;2023-09-18T14:37:00;100579.69;;;25.58;33.47
46448;BME280;32145;50.390;30.778;2023-09-18T14:39:43;100571.31;;;25.49;33.21
46448;BME280;32145;50.390;30.778;2023-09-18T14:42:40;100571.88;;;25.37;33.78
46448;BME280;32145;50.390;30.778;2023-09-18T14:45:34;100568.41;;;25.31;33.93
46448;BME280;32145;50.390;30.778;2023-09-18T14:48:28;100572.97;;;25.27;34.39